createdAt,value
2022-07-29T00:04:36.658Z,60.72
2022-07-29T00:09:50.758Z,60.24
2022-07-29T00:14:37.465Z,59.82
2022-07-29T00:19:36.351Z,60.02
2022-07-29T00:24:36.286Z,59.61
2022-07-29T00:29:36.231Z,59.21
2022-07-29T00:34:36.177Z,59.01
2022-07-29T00:39:36.112Z,59.01
2022-07-29T00:44:36.043Z,59.41
2022-07-29T00:49:35.964Z,59.41
2022-07-29T00:54:37.167Z,59.03
2022-07-29T00:59:35.825Z,59.54
2022-07-29T01:04:35.775Z,59.84
2022-07-29T01:09:45.664Z,59.84
2022-07-29T01:14:36.674Z,59.94
2022-07-29T01:19:35.564Z,60.24
2022-07-29T01:24:35.516Z,60.57
2022-07-29T01:29:38.779Z,60.68
2022-07-29T01:34:35.374Z,60.37
2022-07-29T01:39:35.311Z,60.77
2022-07-29T01:44:35.242Z,61.28
2022-07-29T01:49:35.177Z,61.48
2022-07-29T01:54:35.127Z,60.98
2022-07-29T01:59:35.045Z,61.11
2022-07-29T02:04:35.022Z,61.11
2022-07-29T02:09:35.015Z,61.31
2022-07-29T02:14:34.860Z,60.91
2022-07-29T02:19:34.991Z,61.01
2022-07-29T02:24:34.984Z,61.11
2022-07-29T02:29:34.654Z,61.21
2022-07-29T02:34:34.594Z,61.31
2022-07-29T02:39:34.518Z,61.31
2022-07-29T02:44:34.963Z,61.51
2022-07-29T02:49:34.385Z,61.92
2022-07-29T02:54:34.424Z,61.81
2022-07-29T02:59:34.259Z,61.92
2022-07-29T03:04:34.297Z,62.01
2022-07-29T03:09:34.116Z,62.15
2022-07-29T03:14:34.073Z,62.55
2022-07-29T03:19:34.036Z,62.75
2022-07-29T03:24:33.938Z,62.95
2022-07-29T03:29:34.703Z,63.46
2022-07-29T03:34:33.810Z,63.56
2022-07-29T03:39:33.725Z,63.66
2022-07-29T03:44:33.648Z,63.89
2022-07-29T03:49:33.607Z,64.09
2022-07-29T03:54:33.527Z,64.30
2022-07-29T03:59:33.458Z,64.09
2022-07-29T04:04:33.388Z,64.39
2022-07-29T04:09:33.329Z,64.19
2022-07-29T04:14:33.264Z,64.39
2022-07-29T04:19:33.199Z,64.39
2022-07-29T04:24:33.120Z,64.16
2022-07-29T04:29:33.174Z,64.36
2022-07-29T04:34:32.999Z,63.86
2022-07-29T04:39:32.941Z,63.63
2022-07-29T04:44:32.866Z,63.53
2022-07-29T04:49:32.797Z,63.43
2022-07-29T04:54:32.735Z,63.00
2022-07-29T04:59:32.684Z,62.16
2022-07-29T05:04:32.593Z,61.12
2022-07-29T05:09:32.543Z,60.22
2022-07-29T05:14:32.463Z,60.69
2022-07-29T05:19:32.412Z,60.08
2022-07-29T05:24:32.330Z,60.29
2022-07-29T05:29:44.171Z,60.76
2022-07-29T05:34:33.225Z,60.76
2022-07-29T05:39:47.434Z,60.29
2022-07-29T05:44:33.089Z,60.79
2022-07-29T05:49:32.051Z,60.89
2022-07-29T05:54:31.933Z,60.66
2022-07-29T05:59:31.896Z,59.73
2022-07-29T06:04:31.851Z,58.89
2022-07-29T06:09:31.745Z,59.27
2022-07-29T06:14:31.684Z,58.47
2022-07-29T06:19:31.638Z,56.09
2022-07-29T06:24:31.565Z,54.39
2022-07-29T06:29:31.499Z,53.41
2022-07-29T06:34:31.421Z,49.72
2022-07-29T06:39:31.372Z,47.38
2022-07-29T06:44:31.300Z,48.10
2022-07-29T06:49:31.334Z,46.42
2022-07-29T06:54:31.157Z,46.13
2022-07-29T06:59:35.588Z,45.36
2022-07-29T07:04:31.024Z,42.68
2022-07-29T07:09:39.952Z,41.87
2022-07-29T07:14:30.911Z,41.23
2022-07-29T07:19:30.862Z,40.48
2022-07-29T07:24:30.771Z,38.57
2022-07-29T07:29:30.715Z,39.47
2022-07-29T07:34:30.643Z,39.47
2022-07-29T07:39:30.793Z,40.60
2022-07-29T07:44:30.505Z,41.02
2022-07-29T07:49:30.610Z,40.03
2022-07-29T07:54:30.397Z,41.80
2022-07-29T07:59:30.333Z,43.97
2022-07-29T08:04:30.369Z,45.78
2022-07-29T08:09:30.746Z,45.78
2022-07-29T08:14:30.121Z,45.16
2022-07-29T08:19:30.072Z,45.00
2022-07-29T08:24:29.993Z,44.06
2022-07-29T08:29:29.933Z,42.04
2022-07-29T08:34:29.872Z,42.71
2022-07-29T08:39:29.816Z,41.88
2022-07-29T08:44:30.653Z,41.63
2022-07-29T08:49:29.669Z,42.04
2022-07-29T08:54:29.616Z,42.81
2022-07-29T08:59:29.551Z,41.82
2022-07-29T09:04:29.470Z,41.49
2022-07-29T09:09:29.414Z,40.68
2022-07-29T09:14:29.339Z,40.99
2022-07-29T09:19:29.298Z,40.19
2022-07-29T09:24:29.213Z,40.75
2022-07-29T09:29:32.160Z,39.55
2022-07-29T09:34:29.099Z,38.39
2022-07-29T09:39:29.047Z,39.47
2022-07-29T09:44:28.960Z,38.49
2022-07-29T09:49:29.102Z,38.59
2022-07-29T09:54:28.842Z,38.01
2022-07-29T09:59:28.781Z,38.80
2022-07-29T10:04:28.719Z,38.33
2022-07-29T10:09:28.669Z,38.92
2022-07-29T10:14:28.605Z,37.73
2022-07-29T10:19:28.521Z,38.11
2022-07-29T10:24:28.451Z,38.23
2022-07-29T10:29:28.413Z,37.83
2022-07-29T10:34:28.342Z,38.47
2022-07-29T10:39:41.749Z,38.94
2022-07-29T10:44:29.237Z,37.71
2022-07-29T10:49:30.595Z,37.30
2022-07-29T10:54:28.082Z,35.61
2022-07-29T10:59:32.391Z,35.41
2022-07-29T11:04:27.946Z,36.10
2022-07-29T11:14:28.837Z,35.08
2022-07-29T11:19:30.389Z,35.87
2022-07-29T11:29:28.659Z,33.22
2022-07-29T11:34:28.006Z,32.22
2022-07-29T11:39:27.497Z,33.69
2022-07-29T11:44:27.421Z,33.98
2022-07-29T11:49:32.127Z,33.90
2022-07-29T11:54:27.879Z,34.80
2022-07-29T11:59:33.541Z,35.49
2022-07-29T12:04:28.193Z,34.77
2022-07-29T12:09:27.118Z,35.44
2022-07-29T12:14:28.064Z,35.32
2022-07-29T12:19:26.994Z,34.95
2022-07-29T12:24:27.356Z,35.43
2022-07-29T12:29:33.671Z,34.72
2022-07-29T12:34:26.776Z,34.41
2022-07-29T12:39:26.742Z,35.13
2022-07-29T12:44:26.652Z,34.82
2022-07-29T12:49:26.672Z,35.03
2022-07-29T12:54:26.535Z,35.34
2022-07-29T12:59:26.470Z,35.74
2022-07-29T13:04:26.421Z,35.95
2022-07-29T13:09:26.346Z,36.74
2022-07-29T13:14:26.276Z,37.45
2022-07-29T13:19:26.237Z,37.74
2022-07-29T13:24:26.155Z,37.25
2022-07-29T13:29:31.111Z,37.76
2022-07-29T13:34:26.032Z,37.66
2022-07-29T13:39:25.982Z,38.47
2022-07-29T13:44:25.898Z,38.57
2022-07-29T13:49:25.883Z,38.57
2022-07-29T13:54:25.761Z,38.57
2022-07-29T13:59:25.703Z,38.17
2022-07-29T14:04:25.672Z,39.04
2022-07-29T14:09:25.576Z,38.55
2022-07-29T14:14:25.515Z,38.75
2022-07-29T14:19:25.445Z,38.45
2022-07-29T14:24:25.372Z,38.75
2022-07-29T14:29:25.318Z,39.24
2022-07-29T14:34:26.292Z,38.94
2022-07-29T14:39:25.191Z,39.63
2022-07-29T14:44:25.117Z,39.81
2022-07-29T14:49:25.112Z,38.63
2022-07-29T14:54:25.197Z,39.52
2022-07-29T14:59:24.940Z,39.50
2022-07-29T15:04:24.866Z,39.02
2022-07-29T15:09:24.821Z,38.43
2022-07-29T15:14:24.741Z,38.81
2022-07-29T15:19:24.707Z,39.48
2022-07-29T15:24:24.601Z,37.89
2022-07-29T15:29:24.557Z,38.37
2022-07-29T15:34:24.475Z,37.21
2022-07-29T15:39:24.416Z,37.62
2022-07-29T15:44:24.350Z,37.62
2022-07-29T15:49:24.326Z,37.62
2022-07-29T15:54:24.217Z,37.92
2022-07-29T15:59:24.160Z,38.22
2022-07-29T16:04:24.158Z,45.42
2022-07-29T16:09:24.052Z,46.65
2022-07-29T16:14:24.029Z,47.86
2022-07-29T16:19:23.916Z,48.15
2022-07-29T16:24:23.832Z,49.37
2022-07-29T16:29:23.777Z,49.86
2022-07-29T16:34:23.709Z,51.07
2022-07-29T16:39:23.660Z,51.74
2022-07-29T16:44:25.209Z,51.86
2022-07-29T16:49:23.571Z,51.69
2022-07-29T16:54:23.466Z,50.43
2022-07-29T16:59:23.395Z,51.32
2022-07-29T17:04:23.339Z,51.22
2022-07-29T17:09:23.256Z,51.22
2022-07-29T17:14:23.383Z,50.73
2022-07-29T17:19:23.129Z,50.53
2022-07-29T17:24:23.082Z,50.25
2022-07-29T17:29:23.011Z,50.83
2022-07-29T17:34:22.957Z,50.03
2022-07-29T17:39:22.893Z,49.96
2022-07-29T17:44:22.822Z,50.15
2022-07-29T17:49:22.802Z,50.65
2022-07-29T17:54:22.694Z,51.34
2022-07-29T17:59:22.637Z,51.64
2022-07-29T18:04:22.585Z,51.77
2022-07-29T18:09:22.855Z,51.37
2022-07-29T18:14:22.439Z,50.60
2022-07-29T18:19:22.375Z,50.23
2022-07-29T18:24:22.328Z,50.03
2022-07-29T18:29:22.304Z,49.83
2022-07-29T18:34:22.182Z,49.56
2022-07-29T18:39:22.129Z,49.56
2022-07-29T18:44:22.836Z,49.78
2022-07-29T18:49:22.072Z,50.18
2022-07-29T18:54:21.934Z,50.47
2022-07-29T18:59:21.853Z,50.79
2022-07-29T19:04:21.797Z,51.00
2022-07-29T19:09:21.729Z,51.49
2022-07-29T19:14:21.689Z,51.81
2022-07-29T19:19:21.597Z,52.02
2022-07-29T19:24:21.547Z,52.31
2022-07-29T19:29:21.479Z,52.64
2022-07-29T19:34:21.429Z,52.94
2022-07-29T19:39:31.943Z,53.33
2022-07-29T19:44:22.297Z,53.63
2022-07-29T19:49:21.310Z,53.96
2022-07-29T19:54:21.152Z,54.75
2022-07-29T19:59:23.853Z,55.25
2022-07-29T20:04:21.011Z,55.85
2022-07-29T20:09:20.949Z,56.57
2022-07-29T20:14:20.913Z,56.27
2022-07-29T20:19:20.820Z,56.70
2022-07-29T20:24:20.774Z,56.60
2022-07-29T20:29:20.699Z,56.80
2022-07-29T20:34:20.640Z,57.40
2022-07-29T20:39:20.566Z,57.29
2022-07-29T20:44:20.501Z,57.69
2022-07-29T20:49:20.496Z,58.12
2022-07-29T20:54:20.383Z,58.12
2022-07-29T20:59:20.310Z,58.52
2022-07-29T21:04:20.245Z,59.02
2022-07-29T21:09:20.181Z,59.94
2022-07-29T21:14:20.121Z,60.65
2022-07-29T21:19:20.055Z,61.11
2022-07-29T21:24:20.011Z,63.81
2022-07-29T21:29:19.924Z,67.10
2022-07-29T21:34:19.873Z,68.23
2022-07-29T21:39:19.804Z,69.82
2022-07-29T21:44:19.755Z,71.15
2022-07-29T21:49:19.723Z,72.18
2022-07-29T21:54:19.616Z,72.72
2022-07-29T21:59:19.544Z,73.02
2022-07-29T22:04:19.542Z,74.25
2022-07-29T22:09:19.415Z,77.02
2022-07-29T22:14:19.357Z,78.76
2022-07-29T22:19:19.300Z,79.86
2022-07-29T22:24:19.225Z,80.26
2022-07-29T22:29:19.165Z,80.60
2022-07-29T22:34:19.093Z,82.20
2022-07-29T22:39:19.029Z,82.61
2022-07-29T22:44:18.975Z,83.25
2022-07-29T22:49:18.944Z,84.25
2022-07-29T22:54:18.844Z,84.89
2022-07-29T22:59:18.788Z,85.19
2022-07-29T23:04:18.711Z,85.49
2022-07-29T23:09:18.628Z,85.83
2022-07-29T23:14:18.588Z,86.23
2022-07-29T23:19:18.501Z,86.63
2022-07-29T23:24:18.450Z,87.68
2022-07-29T23:29:18.373Z,87.38
2022-07-29T23:34:18.316Z,87.88
2022-07-29T23:39:18.244Z,88.02
2022-07-29T23:44:18.185Z,88.22
2022-07-29T23:49:18.166Z,88.32
2022-07-29T23:54:18.057Z,88.67
2022-07-29T23:59:17.983Z,88.67
